createdAt,value
2022-12-08T00:01:09.645Z,100103.76
2022-12-08T00:03:40.710Z,100100.38
2022-12-08T00:06:40.986Z,100105.00
2022-12-08T00:09:24.896Z,100099.98
2022-12-08T00:11:58.676Z,100097.39
2022-12-08T00:14:31.583Z,100094.98
2022-12-08T00:17:03.291Z,100099.83
2022-12-08T00:19:34.732Z,100089.67
2022-12-08T00:22:06.215Z,100086.20
2022-12-08T00:24:39.504Z,100084.80
2022-12-08T00:27:11.179Z,100075.73
2022-12-08T00:29:41.598Z,100074.74
2022-12-08T00:32:12.014Z,100073.69
2022-12-08T00:34:42.527Z,100065.89
2022-12-08T00:37:12.856Z,100072.17
2022-12-08T00:39:43.196Z,100068.48
2022-12-08T00:42:13.843Z,100068.34
2022-12-08T00:44:45.824Z,100061.21
2022-12-08T00:47:21.010Z,100057.91
2022-12-08T00:49:53.891Z,100059.70
2022-12-08T00:52:24.443Z,100055.59
2022-12-08T00:54:55.200Z,100054.77
2022-12-08T00:57:25.522Z,100047.92
2022-12-08T00:59:57.186Z,100049.59
2022-12-08T01:02:28.171Z,100049.88
2022-12-08T01:04:58.575Z,100050.45
2022-12-08T01:07:28.948Z,100050.74
2022-12-08T01:10:00.128Z,100051.62
2022-12-08T01:12:31.326Z,100048.83
2022-12-08T01:15:02.702Z,100046.11
2022-12-08T01:17:33.811Z,100045.42
2022-12-08T01:20:05.157Z,100048.00
2022-12-08T01:22:37.343Z,100047.52
2022-12-08T01:25:08.424Z,100049.80
2022-12-08T01:27:38.824Z,100049.27
2022-12-08T01:30:12.278Z,100050.91
2022-12-08T01:32:42.685Z,100053.06
2022-12-08T01:35:14.021Z,100054.02
2022-12-08T01:37:44.471Z,100046.95
2022-12-08T01:40:14.969Z,100046.00
2022-12-08T01:42:45.375Z,100041.07
2022-12-08T01:45:24.016Z,100035.94
2022-12-08T01:47:57.531Z,100035.95
2022-12-08T01:50:29.572Z,100035.58
2022-12-08T01:53:05.645Z,100033.89
2022-12-08T01:55:39.981Z,100028.86
2022-12-08T01:58:16.761Z,100029.04
2022-12-08T02:00:47.867Z,100030.38
2022-12-08T02:03:23.484Z,100034.32
2022-12-08T02:05:54.692Z,100030.77
2022-12-08T02:08:25.862Z,100025.58
2022-12-08T02:10:56.290Z,100024.38
2022-12-08T02:13:27.343Z,100023.73
2022-12-08T02:16:04.776Z,100015.91
2022-12-08T02:19:22.497Z,100015.65
2022-12-08T02:21:52.945Z,100008.67
2022-12-08T02:24:31.539Z,100008.52
2022-12-08T02:27:18.060Z,100006.02
2022-12-08T02:30:16.153Z,100004.58
2022-12-08T02:33:23.206Z,100000.77
2022-12-08T02:36:00.923Z,99994.61
2022-12-08T02:38:47.010Z,99992.50
2022-12-08T02:41:31.148Z,99991.53
2022-12-08T02:44:08.107Z,99995.06
2022-12-08T02:46:42.998Z,99992.47
2022-12-08T02:49:15.181Z,99987.94
2022-12-08T02:51:45.606Z,99985.78
2022-12-08T02:54:16.838Z,99983.93
2022-12-08T02:57:10.870Z,99986.52
2022-12-08T02:59:58.084Z,99983.88
2022-12-08T03:02:51.331Z,99984.25
2022-12-08T03:05:36.543Z,99984.29
2022-12-08T03:08:15.975Z,99981.05
2022-12-08T03:10:53.472Z,99979.90
2022-12-08T03:13:29.774Z,99981.29
2022-12-08T03:16:02.990Z,99978.00
2022-12-08T03:18:37.845Z,99974.84
2022-12-08T03:21:10.481Z,99974.41
2022-12-08T03:23:43.712Z,99972.30
2022-12-08T03:26:19.956Z,99967.89
2022-12-08T03:28:50.761Z,99963.80
2022-12-08T03:31:24.845Z,99955.58
2022-12-08T03:33:59.427Z,99950.14
2022-12-08T03:36:30.471Z,99950.11
2022-12-08T03:39:01.810Z,99952.30
2022-12-08T03:41:32.510Z,99952.16
2022-12-08T03:44:02.843Z,99947.77
2022-12-08T03:46:33.321Z,99946.36
2022-12-08T03:49:03.684Z,99942.44
2022-12-08T03:51:34.513Z,99940.70
2022-12-08T03:54:04.956Z,99939.38
2022-12-08T03:56:39.055Z,99939.55
2022-12-08T03:59:09.892Z,99934.65
2022-12-08T04:01:40.339Z,99931.55
2022-12-08T04:04:11.352Z,99929.17
2022-12-08T04:06:41.788Z,99930.23
2022-12-08T04:09:12.791Z,99922.64
2022-12-08T04:11:43.138Z,99924.46
2022-12-08T04:14:13.784Z,99914.88
2022-12-08T04:16:45.008Z,99918.56
2022-12-08T04:19:15.772Z,99912.65
2022-12-08T04:21:46.939Z,99910.40
2022-12-08T04:24:18.018Z,99910.88
2022-12-08T04:26:49.690Z,99908.54
2022-12-08T04:29:20.132Z,99904.76
2022-12-08T04:31:50.822Z,99908.67
2022-12-08T04:34:21.170Z,99907.16
2022-12-08T04:36:51.583Z,99906.09
2022-12-08T04:39:22.536Z,99910.63
2022-12-08T04:41:53.167Z,99908.35
2022-12-08T04:44:23.544Z,99902.00
2022-12-08T04:46:54.009Z,99900.84
2022-12-08T04:49:24.414Z,99901.03
2022-12-08T04:51:54.864Z,99896.58
2022-12-08T04:54:25.249Z,99895.36
2022-12-08T04:56:55.952Z,99888.52
2022-12-08T04:59:26.280Z,99888.08
2022-12-08T05:01:56.785Z,99885.89
2022-12-08T05:04:27.581Z,99882.61
2022-12-08T05:06:58.382Z,99881.45
2022-12-08T05:09:29.418Z,99883.11
2022-12-08T05:12:00.337Z,99880.48
2022-12-08T05:14:30.743Z,99875.81
2022-12-08T05:17:06.257Z,99877.29
2022-12-08T05:19:39.767Z,99874.83
2022-12-08T05:22:10.198Z,99873.19
2022-12-08T05:24:47.036Z,99874.76
2022-12-08T05:27:18.636Z,99874.61
2022-12-08T05:29:50.220Z,99873.23
2022-12-08T05:32:20.647Z,99867.33
2022-12-08T05:34:51.382Z,99866.23
2022-12-08T05:37:21.812Z,99863.19
2022-12-08T05:39:52.478Z,99861.02
2022-12-08T05:42:25.132Z,99857.60
2022-12-08T05:44:56.078Z,99861.17
2022-12-08T05:47:28.890Z,99862.70
2022-12-08T05:50:03.025Z,99852.69
2022-12-08T05:52:34.224Z,99860.48
2022-12-08T05:55:04.623Z,99861.48
2022-12-08T05:57:35.436Z,99855.27
2022-12-08T06:00:07.616Z,99850.18
2022-12-08T06:02:38.201Z,99851.85
2022-12-08T06:05:10.015Z,99848.05
2022-12-08T06:07:40.469Z,99846.83
2022-12-08T06:10:12.945Z,99843.34
2022-12-08T06:12:43.283Z,99844.32
2022-12-08T06:15:14.299Z,99845.95
2022-12-08T06:17:44.833Z,99842.82
2022-12-08T06:20:16.068Z,99844.77
2022-12-08T06:22:46.419Z,99847.33
2022-12-08T06:25:17.254Z,99840.54
2022-12-08T06:27:47.700Z,99840.10
2022-12-08T06:30:18.799Z,99841.56
2022-12-08T06:32:49.570Z,99847.88
2022-12-08T06:35:20.194Z,99851.01
2022-12-08T06:37:51.698Z,99849.11
2022-12-08T06:40:22.090Z,99848.48
2022-12-08T06:42:52.526Z,99847.48
2022-12-08T06:45:22.864Z,99849.33
2022-12-08T06:47:53.628Z,99846.96
2022-12-08T06:50:24.612Z,99850.23
2022-12-08T06:53:04.542Z,99845.73
2022-12-08T06:55:58.802Z,99847.95
2022-12-08T06:58:26.985Z,99848.94
2022-12-08T07:00:57.786Z,99847.95
2022-12-08T07:03:28.367Z,99846.44
2022-12-08T07:06:03.734Z,99848.55
2022-12-08T07:08:35.966Z,99852.96
2022-12-08T07:11:15.307Z,99856.30
2022-12-08T07:13:48.770Z,99855.70
2022-12-08T07:16:19.359Z,99851.91
2022-12-08T07:18:50.467Z,99851.84
2022-12-08T07:21:20.988Z,99858.35
2022-12-08T07:23:57.307Z,99861.15
2022-12-08T07:26:28.416Z,99859.92
2022-12-08T07:28:58.661Z,99867.21
2022-12-08T07:31:29.684Z,99864.30
2022-12-08T07:34:00.635Z,99869.98
2022-12-08T07:36:32.540Z,99869.20
2022-12-08T07:39:03.165Z,99868.21
2022-12-08T07:41:34.519Z,99870.38
2022-12-08T07:44:05.344Z,99873.20
2022-12-08T07:46:35.731Z,99871.55
2022-12-08T07:49:06.402Z,99874.27
2022-12-08T07:51:37.410Z,99874.94
2022-12-08T07:54:11.343Z,99874.46
2022-12-08T07:56:41.944Z,99876.18
2022-12-08T07:59:12.966Z,99878.27
2022-12-08T08:01:45.405Z,99874.52
2022-12-08T08:04:16.042Z,99876.80
2022-12-08T08:06:46.374Z,99879.70
2022-12-08T08:09:17.220Z,99879.73
2022-12-08T08:12:01.291Z,99880.81
2022-12-08T08:14:39.211Z,99883.62
2022-12-08T08:17:10.043Z,99886.11
2022-12-08T08:19:43.853Z,99884.70
2022-12-08T08:22:14.565Z,99883.64
2022-12-08T08:24:45.699Z,99880.51
2022-12-08T08:27:16.337Z,99885.84
2022-12-08T08:29:46.669Z,99877.52
2022-12-08T08:32:17.396Z,99878.63
2022-12-08T08:34:47.989Z,99879.64
2022-12-08T08:37:18.887Z,99877.59
2022-12-08T08:39:49.255Z,99874.65
2022-12-08T08:42:19.601Z,99880.90
2022-12-08T08:44:49.962Z,99885.02
2022-12-08T08:47:20.343Z,99881.40
2022-12-08T08:49:51.683Z,99880.91
2022-12-08T08:52:22.110Z,99884.55
2022-12-08T08:54:53.171Z,99886.02
2022-12-08T08:57:26.026Z,99885.29
2022-12-08T08:59:56.948Z,99889.31
2022-12-08T09:02:27.634Z,99886.69
2022-12-08T09:04:58.596Z,99885.77
2022-12-08T09:07:29.451Z,99883.34
2022-12-08T09:10:02.076Z,99885.61
2022-12-08T09:12:33.179Z,99888.88
2022-12-08T09:15:04.250Z,99892.98
2022-12-08T09:17:34.893Z,99897.05
2022-12-08T09:20:06.155Z,99896.92
2022-12-08T09:22:36.984Z,99894.16
2022-12-08T09:25:08.865Z,99896.23
2022-12-08T09:27:39.472Z,99897.05
2022-12-08T09:30:11.572Z,99899.26
2022-12-08T09:32:41.952Z,99894.98
2022-12-08T09:35:12.689Z,99897.20
2022-12-08T09:37:43.380Z,99902.98
2022-12-08T09:40:21.184Z,99903.19
2022-12-08T09:42:56.484Z,99903.92
2022-12-08T09:45:31.132Z,99902.96
2022-12-08T09:48:06.865Z,99900.34
2022-12-08T09:50:42.698Z,99900.20
2022-12-08T09:53:19.862Z,99904.17
2022-12-08T09:55:54.713Z,99900.07
2022-12-08T09:58:33.372Z,99902.02
2022-12-08T10:01:04.328Z,99898.55
2022-12-08T10:03:34.644Z,99900.56
2022-12-08T10:06:13.580Z,99893.13
2022-12-08T10:08:53.488Z,99895.86
2022-12-08T10:11:33.552Z,99891.41
2022-12-08T10:14:19.401Z,99892.42
2022-12-08T10:16:53.247Z,99896.70
2022-12-08T10:19:26.117Z,99894.33
2022-12-08T10:21:58.003Z,99894.37
2022-12-08T10:24:34.664Z,99891.54
2022-12-08T10:27:06.610Z,99889.95
2022-12-08T10:29:38.006Z,99882.36
2022-12-08T10:32:19.034Z,99870.30
2022-12-08T10:35:08.815Z,99871.32
2022-12-08T10:37:39.758Z,99874.40
2022-12-08T10:40:14.334Z,99868.27
2022-12-08T10:42:48.089Z,99867.94
2022-12-08T10:45:29.324Z,99868.83
2022-12-08T10:48:03.670Z,99869.77
2022-12-08T10:50:43.133Z,99864.57
2022-12-08T10:53:22.405Z,99864.29
2022-12-08T10:55:54.822Z,99864.10
2022-12-08T10:58:31.645Z,99857.86
2022-12-08T11:01:07.638Z,99864.67
2022-12-08T11:03:44.760Z,99864.29
2022-12-08T11:06:19.355Z,99860.69
2022-12-08T11:08:52.899Z,99862.83
2022-12-08T11:11:37.819Z,99860.08
2022-12-08T11:14:16.671Z,99862.38
2022-12-08T11:16:47.708Z,99864.38
2022-12-08T11:19:19.641Z,99866.19
2022-12-08T11:21:50.508Z,99859.34
2022-12-08T11:24:34.692Z,99863.39
2022-12-08T11:27:09.697Z,99867.23
2022-12-08T11:29:40.859Z,99867.10
2022-12-08T11:32:14.871Z,99863.12
2022-12-08T11:34:47.725Z,99862.02
2022-12-08T11:37:23.385Z,99862.99
2022-12-08T11:39:57.800Z,99864.67
2022-12-08T11:42:35.008Z,99861.76
2022-12-08T11:45:13.686Z,99863.40
2022-12-08T11:47:54.159Z,99861.48
2022-12-08T11:50:30.759Z,99860.00
2022-12-08T11:53:02.696Z,99859.14
2022-12-08T11:55:39.096Z,99857.27
2022-12-08T11:58:18.068Z,99859.64
2022-12-08T12:00:48.831Z,99869.55
2022-12-08T12:03:29.743Z,99867.66
2022-12-08T12:06:38.330Z,99867.42
2022-12-08T12:09:18.161Z,99866.48
2022-12-08T12:12:16.008Z,99868.05
2022-12-08T12:15:03.231Z,99862.07
2022-12-08T12:17:44.674Z,99861.47
2022-12-08T12:20:21.005Z,99864.90
2022-12-08T12:22:57.690Z,99864.15
2022-12-08T12:25:29.550Z,99860.58
2022-12-08T12:28:04.435Z,99862.71
2022-12-08T12:30:54.961Z,99866.33
2022-12-08T12:33:26.427Z,99860.84
2022-12-08T12:35:59.674Z,99861.06
2022-12-08T12:38:52.166Z,99857.38
2022-12-08T12:41:27.333Z,99857.30
2022-12-08T12:44:26.335Z,99857.88
2022-12-08T12:47:00.191Z,99861.54
2022-12-08T12:50:05.733Z,99859.63
2022-12-08T12:52:47.563Z,99858.05
2022-12-08T12:55:30.533Z,99861.98
2022-12-08T12:58:04.804Z,99858.51
2022-12-08T13:00:35.283Z,99855.50
2022-12-08T13:03:05.947Z,99856.05
2022-12-08T13:05:48.240Z,99857.74
2022-12-08T13:08:24.785Z,99857.38
2022-12-08T13:11:04.172Z,99858.48
2022-12-08T13:13:34.731Z,99858.27
2022-12-08T13:16:19.477Z,99859.82
2022-12-08T13:18:52.641Z,99858.60
2022-12-08T13:21:25.418Z,99858.65
2022-12-08T13:24:25.962Z,99858.13
2022-12-08T13:27:33.762Z,99860.41
2022-12-08T13:30:38.050Z,99859.52
2022-12-08T13:33:18.096Z,99861.30
2022-12-08T13:35:57.492Z,99859.92
2022-12-08T13:38:33.950Z,99856.17
2022-12-08T13:41:09.312Z,99853.06
2022-12-08T13:44:10.289Z,99854.60
2022-12-08T13:56:51.386Z,99873.95
2022-12-08T13:58:31.631Z,99876.30
2022-12-08T14:01:09.915Z,99875.51
2022-12-08T14:04:20.338Z,99876.95
2022-12-08T14:06:46.612Z,99877.84
2022-12-08T14:09:21.015Z,99884.43
2022-12-08T14:11:58.284Z,99887.80
2022-12-08T14:15:01.286Z,99889.81
2022-12-08T14:17:23.320Z,99888.52
2022-12-08T14:19:58.787Z,99888.91
2022-12-08T14:22:35.634Z,99890.00
2022-12-08T14:25:08.158Z,99888.66
2022-12-08T14:27:40.530Z,99894.11
2022-12-08T14:30:22.301Z,99888.78
2022-12-08T14:32:54.993Z,99889.56
2022-12-08T14:35:29.264Z,99889.55
2022-12-08T14:38:01.979Z,99890.40
2022-12-08T14:40:35.741Z,99893.42
2022-12-08T14:43:21.280Z,99895.02
2022-12-08T14:45:55.444Z,99898.99
2022-12-08T14:48:28.177Z,99896.64
2022-12-08T14:51:03.048Z,99899.71
2022-12-08T14:53:39.948Z,99897.42
2022-12-08T14:56:18.700Z,99899.20
2022-12-08T14:58:50.396Z,99902.23
2022-12-08T15:01:24.906Z,99904.48
2022-12-08T15:04:01.022Z,99911.14
2022-12-08T15:06:31.811Z,99910.17
2022-12-08T15:09:15.208Z,99908.00
2022-12-08T15:11:46.029Z,99913.71
2022-12-08T15:14:31.843Z,99914.83
2022-12-08T15:17:02.673Z,99915.59
2022-12-08T15:19:34.632Z,99911.41
2022-12-08T15:22:18.697Z,99910.52
2022-12-08T15:24:49.514Z,99911.98
2022-12-08T15:27:21.176Z,99911.70
2022-12-08T15:29:52.204Z,99915.39
2022-12-08T15:32:25.071Z,99917.74
2022-12-08T15:34:55.703Z,99923.40
2022-12-08T15:37:27.312Z,99926.60
2022-12-08T15:39:58.025Z,99926.11
2022-12-08T15:42:28.833Z,99929.79
2022-12-08T15:44:59.679Z,99933.73
2022-12-08T15:47:31.125Z,99933.67
2022-12-08T15:50:04.569Z,99932.96
2022-12-08T15:52:36.888Z,99934.39
2022-12-08T15:55:08.344Z,99930.69
2022-12-08T16:00:52.318Z,99930.42
2022-12-08T16:04:09.373Z,99929.48
2022-12-08T16:09:20.640Z,99931.63
2022-12-08T16:12:23.895Z,99934.69
2022-12-08T16:17:45.740Z,99935.80
2022-12-08T16:20:20.100Z,99934.45
2022-12-08T16:23:03.116Z,99932.50
2022-12-08T16:26:17.405Z,99938.02
2022-12-08T16:28:54.699Z,99938.34
2022-12-08T16:31:25.476Z,99941.61
2022-12-08T16:33:56.230Z,99943.55
2022-12-08T16:36:26.645Z,99942.54
2022-12-08T16:38:57.036Z,99946.52
2022-12-08T16:41:45.184Z,99949.02
2022-12-08T16:44:15.958Z,99948.45
2022-12-08T16:46:46.861Z,99946.83
2022-12-08T16:49:17.418Z,99952.41
2022-12-08T16:51:48.089Z,99948.96
2022-12-08T16:54:18.524Z,99952.20
2022-12-08T16:56:48.958Z,99950.20
2022-12-08T16:59:19.771Z,99953.83
2022-12-08T17:01:50.217Z,99955.63
2022-12-08T17:04:31.475Z,99955.77
2022-12-08T17:07:02.881Z,99957.71
2022-12-08T17:09:34.919Z,99961.27
2022-12-08T17:12:06.124Z,99956.52
2022-12-08T17:14:37.436Z,99958.14
2022-12-08T17:17:07.929Z,99955.58
2022-12-08T17:19:38.458Z,99957.92
2022-12-08T17:22:09.584Z,99952.80
2022-12-08T17:24:40.531Z,99950.56
2022-12-08T17:27:11.368Z,99948.75
2022-12-08T17:29:42.087Z,99941.96
2022-12-08T17:32:13.277Z,99945.25
2022-12-08T17:34:43.766Z,99944.73
2022-12-08T17:37:14.583Z,99946.84
2022-12-08T17:39:45.089Z,99954.42
2022-12-08T17:42:16.012Z,99958.64
2022-12-08T17:44:47.133Z,99957.63
2022-12-08T17:47:17.561Z,99957.63
2022-12-08T17:49:48.546Z,99959.91
2022-12-08T17:52:18.944Z,99962.30
2022-12-08T17:54:49.362Z,99964.11
2022-12-08T17:57:20.036Z,99974.17
2022-12-08T17:59:50.728Z,99971.73
2022-12-08T18:02:21.458Z,99971.61
2022-12-08T18:04:51.906Z,99974.70
2022-12-08T18:07:22.661Z,99973.48
2022-12-08T18:09:53.043Z,99972.92
2022-12-08T18:12:24.169Z,99967.67
2022-12-08T18:14:54.644Z,99965.77
2022-12-08T18:17:25.577Z,99967.60
2022-12-08T18:19:56.243Z,99966.89
2022-12-08T18:22:27.367Z,99967.95
2022-12-08T18:24:57.747Z,99968.08
2022-12-08T18:27:31.545Z,99967.31
2022-12-08T18:30:02.689Z,99965.53
2022-12-08T18:32:34.403Z,99966.35
2022-12-08T18:35:08.715Z,99965.96
2022-12-08T18:37:39.615Z,99967.90
2022-12-08T18:40:12.415Z,99968.52
2022-12-08T18:42:42.876Z,99970.30
2022-12-08T18:45:17.887Z,99968.19
2022-12-08T18:47:52.307Z,99969.66
2022-12-08T18:50:23.056Z,99974.16
2022-12-08T18:52:53.978Z,99972.59
2022-12-08T18:55:24.310Z,99975.94
2022-12-08T18:57:54.648Z,99975.74
2022-12-08T19:00:25.315Z,99976.59
2022-12-08T19:02:55.734Z,99978.73
2022-12-08T19:05:26.942Z,99982.30
2022-12-08T19:07:57.716Z,99984.50
2022-12-08T19:10:29.344Z,99983.86
2022-12-08T19:12:59.710Z,99986.77
2022-12-08T19:15:30.390Z,99985.38
2022-12-08T19:18:01.189Z,99984.61
2022-12-08T19:20:32.509Z,99990.47
2022-12-08T19:23:02.969Z,99991.94
2022-12-08T19:25:33.458Z,99995.92
2022-12-08T19:28:04.435Z,99994.41
2022-12-08T19:30:35.021Z,99997.30
2022-12-08T19:33:06.353Z,99996.20
2022-12-08T19:35:37.309Z,99995.64
2022-12-08T19:38:07.814Z,99997.75
2022-12-08T19:40:55.698Z,100000.10
2022-12-08T19:43:42.316Z,99995.40
2022-12-08T19:46:13.308Z,99998.16
2022-12-08T19:48:43.794Z,99999.16
2022-12-08T19:51:14.300Z,99999.80
2022-12-08T19:53:47.829Z,100002.98
2022-12-08T19:56:19.107Z,100001.96
2022-12-08T19:58:49.738Z,100001.15
2022-12-08T20:01:20.174Z,99999.77
2022-12-08T20:03:50.614Z,99998.29
2022-12-08T20:06:28.499Z,100006.26
2022-12-08T20:08:59.615Z,100008.08
2022-12-08T20:11:30.127Z,100010.59
2022-12-08T20:14:00.864Z,100013.38
2022-12-08T20:16:31.791Z,100015.52
2022-12-08T20:19:02.872Z,100013.17
2022-12-08T20:21:33.623Z,100018.34
2022-12-08T20:24:04.693Z,100019.98
2022-12-08T20:26:35.400Z,100023.90
2022-12-08T20:29:05.920Z,100027.09
2022-12-08T20:31:36.492Z,100027.90
2022-12-08T20:34:06.926Z,100028.89
2022-12-08T20:36:38.050Z,100028.63
2022-12-08T20:39:14.364Z,100023.80
2022-12-08T20:41:46.741Z,100026.80
2022-12-08T20:44:17.913Z,100027.42
2022-12-08T20:46:49.750Z,100033.21
2022-12-08T20:49:20.973Z,100032.15
2022-12-08T20:51:51.531Z,100034.13
2022-12-08T20:54:22.320Z,100030.42
2022-12-08T20:56:52.942Z,100034.86
2022-12-08T20:59:26.969Z,100033.59
2022-12-08T21:01:57.628Z,100029.98
2022-12-08T21:04:28.554Z,100021.73
2022-12-08T21:07:00.592Z,100021.81
2022-12-08T21:09:31.238Z,100022.89
2022-12-08T21:12:02.524Z,100025.30
2022-12-08T21:14:33.194Z,100027.23
2022-12-08T21:17:04.770Z,100031.64
2022-12-08T21:19:35.934Z,100034.86
2022-12-08T21:22:06.466Z,100036.23
2022-12-08T21:24:36.794Z,100035.63
2022-12-08T21:27:07.785Z,100041.17
2022-12-08T21:29:38.549Z,100040.59
2022-12-08T21:32:09.808Z,100045.11
2022-12-08T21:34:40.699Z,100051.23
2022-12-08T21:37:11.469Z,100047.75
2022-12-08T21:39:41.920Z,100048.05
2022-12-08T21:42:34.293Z,100046.16
2022-12-08T21:45:05.565Z,100042.66
2022-12-08T21:47:36.604Z,100047.15
2022-12-08T21:50:10.040Z,100043.96
2022-12-08T21:52:42.506Z,100045.52
2022-12-08T21:55:14.381Z,100043.66
2022-12-08T21:57:44.843Z,100047.17
2022-12-08T22:00:18.098Z,100048.85
2022-12-08T22:02:49.388Z,100052.39
2022-12-08T22:05:20.284Z,100051.95
2022-12-08T22:07:51.113Z,100047.17
2022-12-08T22:10:23.094Z,100048.06
2022-12-08T22:12:54.299Z,100048.41
2022-12-08T22:15:25.846Z,100049.08
2022-12-08T22:17:56.944Z,100047.01
2022-12-08T22:20:27.887Z,100044.16
2022-12-08T22:22:59.358Z,100043.56
2022-12-08T22:25:30.327Z,100041.65
2022-12-08T22:28:01.252Z,100043.27
2022-12-08T22:30:38.621Z,100040.70
2022-12-08T22:33:10.156Z,100039.17
2022-12-08T22:35:41.389Z,100039.94
2022-12-08T22:38:12.018Z,100039.62
2022-12-08T22:40:44.028Z,100038.98
2022-12-08T22:43:14.720Z,100040.56
2022-12-08T22:45:46.164Z,100036.71
2022-12-08T22:48:17.469Z,100041.28
2022-12-08T22:50:48.201Z,100039.61
2022-12-08T22:53:20.366Z,100041.73
2022-12-08T22:55:50.935Z,100040.83
2022-12-08T22:58:21.818Z,100041.91
2022-12-08T23:00:52.566Z,100040.98
2022-12-08T23:03:23.672Z,100036.75
2022-12-08T23:05:54.289Z,100040.56
2022-12-08T23:08:25.388Z,100043.77
2022-12-08T23:10:57.489Z,100047.61
2022-12-08T23:13:28.478Z,100046.83
2022-12-08T23:15:59.175Z,100045.23
2022-12-08T23:18:29.646Z,100039.95
2022-12-08T23:21:05.957Z,100036.40
2022-12-08T23:23:36.587Z,100037.92
2022-12-08T23:26:13.709Z,100036.66
2022-12-08T23:28:44.307Z,100034.93
2022-12-08T23:31:15.320Z,100030.54
2022-12-08T23:33:46.146Z,100032.58
2022-12-08T23:36:19.400Z,100036.42
2022-12-08T23:38:49.992Z,100037.04
2022-12-08T23:41:20.603Z,100039.90
2022-12-08T23:43:52.462Z,100038.98
2022-12-08T23:46:24.107Z,100043.60
2022-12-08T23:48:54.627Z,100038.30
2022-12-08T23:51:25.148Z,100033.24
2022-12-08T23:53:55.679Z,100035.70
2022-12-08T23:56:30.247Z,100032.77
2022-12-08T23:59:02.539Z,100030.88
